General Aviation Weather

Text Reports

Enter one or more of the following location identifiers separated by a space:

Zip Code, Four-Character ICAO or Three-Character IATA airport codes.

METAR - Aviation Routine Weather Report
KBML - Berlin, New Hampshire
Updated at 4:52 AM GMT on August 31, 2014 (12:52 AM EDT):
METAR KBML 310452Z AUTO 00000KT 10SM CLR 13/12 A3007 RMK AO2 SLP181 T01280122 402560061
TAF - Terminal Area Forecast
KBML - Berlin, New Hampshire
Updated at 4:52 AM GMT on August 31, 2014 (12:52 AM EDT):
No TAF is currently available for this location.
Decoded:
No decoded TAF is available.
PIREP - Pilot Weather Report
KBML - Berlin, New Hampshire
Updated at 4:52 AM GMT on August 31, 2014 (12:52 AM EDT):
No PIREP is currently available for this location.
AIRMET - Airmens Meteorological Information
KBML - Berlin, New Hampshire
Updated at 4:52 AM GMT on August 31, 2014 (12:52 AM EDT):
No AIRMET is currently available for this location.
SIGMET - Significant Meteorological Information
KBML - Berlin, New Hampshire
Updated at 4:52 AM GMT on August 31, 2014 (12:52 AM EDT):
No SIGMET is currently available for this location.
NOTAM - Notice to Airmen
KBML - Berlin, New Hampshire
Updated at 4:52 AM GMT on August 31, 2014 (12:52 AM EDT):
No NOTAM is currently available for this location.
Forecast Area
KBML - Berlin, New Hampshire
Updated at 4:52 AM GMT on August 31, 2014 (12:52 AM EDT):
No NOTAM is currently available for this location.
Aviation Weather Maps